Decoded Metar for KMYR (MYRTLE BEACH in SC, USA) (IATA:MYR) | Meteo·Mobile Aviation Weather
aviador You're here:

KMYR Decoded Metar

MYRTLE BEACH in SC, USA
Report Time2019-04-20 23:56:00
UTC Time2019-04-21 00:14:32
Flight Rules vfr VFR
Wind240° at 08 kt
W.Decomp.*RWY 18: 3.3 kt HW 7.3 kt RCW
Visibility9999 m
Phenomena:N/A
Clouds:Overcast 065 Hf
Expected CloudBase > 3,600 ft AGL from Temp-Dew spread
Ceiling6,500 ft
Temp15°C (ISA 0)
Dew Point06°C (55% RH)
AAT11.2°C
QNH1012 hPa
Density Alt194 ft
Elevation26 ft
Report Wrong Elevation
Raw Report
METAR KMYR 202356Z 24008KT 10SM OVC065 15/06 A2989 RMK AO2 SLP121 T01500056
10189 20150 51034=

Extra information for KMYR:More info

Metar Taf Metar & Taf Last 4 Metars F.Rules Stats Wind Profile Meteogram Temp Stats Airport Information Weather charts Add Link Nearby VenuesMetar ALERT Operation Metar Decoded Social comments

AIRNAV info for KMYR